createdAt,value
2022-10-26T00:01:14.279Z,12.30
2022-10-26T00:03:43.053Z,12.30
2022-10-26T00:06:21.905Z,12.30
2022-10-26T00:08:49.568Z,12.30
2022-10-26T00:11:17.805Z,12.20
2022-10-26T00:13:46.186Z,12.20
2022-10-26T00:16:23.182Z,12.30
2022-10-26T00:18:51.082Z,12.20
2022-10-26T00:21:18.840Z,12.20
2022-10-26T00:23:46.092Z,12.20
2022-10-26T00:26:13.423Z,12.20
2022-10-26T00:28:40.965Z,12.20
2022-10-26T00:31:12.643Z,12.20
2022-10-26T00:33:40.320Z,12.30
2022-10-26T00:36:09.470Z,12.30
2022-10-26T00:38:37.361Z,12.30
2022-10-26T00:41:04.559Z,12.30
2022-10-26T00:43:31.645Z,12.30
2022-10-26T00:45:59.988Z,12.30
2022-10-26T00:48:35.432Z,12.30
2022-10-26T00:51:09.129Z,12.30
2022-10-26T00:53:36.856Z,12.30
2022-10-26T00:56:04.501Z,12.30
2022-10-26T00:58:32.523Z,12.30
2022-10-26T01:00:59.689Z,12.30
2022-10-26T01:03:28.320Z,12.30
2022-10-26T01:05:57.739Z,12.30
2022-10-26T01:08:28.289Z,12.30
2022-10-26T01:10:57.482Z,12.30
2022-10-26T01:13:28.533Z,12.30
2022-10-26T01:16:07.776Z,12.30
2022-10-26T01:19:16.780Z,12.30
2022-10-26T01:22:11.379Z,12.30
2022-10-26T01:25:03.315Z,12.30
2022-10-26T01:27:43.448Z,12.30
2022-10-26T01:30:15.642Z,12.30
2022-10-26T01:33:34.248Z,12.30
2022-10-26T01:36:21.330Z,12.40
2022-10-26T01:38:59.808Z,12.40
2022-10-26T01:41:51.656Z,12.40
2022-10-26T01:44:33.919Z,12.40
2022-10-26T01:47:02.915Z,12.40
2022-10-26T01:49:39.597Z,12.40
2022-10-26T01:52:09.222Z,12.40
2022-10-26T01:57:13.037Z,12.30
2022-10-26T02:00:02.021Z,12.40
2022-10-26T02:02:59.849Z,12.40
2022-10-26T02:05:32.874Z,12.40
2022-10-26T02:08:40.844Z,12.40
2022-10-26T02:11:23.043Z,12.40
2022-10-26T02:13:57.008Z,12.40
2022-10-26T02:16:54.210Z,12.40
2022-10-26T02:19:43.171Z,12.30
2022-10-26T02:22:21.696Z,12.30
2022-10-26T02:24:52.165Z,12.40
2022-10-26T02:27:24.896Z,12.40
2022-10-26T02:29:55.427Z,12.40
2022-10-26T02:32:29.258Z,12.40
2022-10-26T02:34:59.867Z,12.40
2022-10-26T02:37:28.313Z,12.40
2022-10-26T02:39:57.879Z,12.40
2022-10-26T02:42:27.068Z,12.40
2022-10-26T02:44:59.319Z,12.40
2022-10-26T02:47:27.701Z,12.40
2022-10-26T02:49:55.719Z,12.40
2022-10-26T02:52:39.817Z,12.40
2022-10-26T02:55:16.230Z,12.40
2022-10-26T02:57:47.839Z,12.40
2022-10-26T03:00:17.345Z,12.40
2022-10-26T03:02:54.587Z,12.40
2022-10-26T03:05:27.826Z,12.40
2022-10-26T03:07:56.147Z,12.40
2022-10-26T03:10:23.789Z,12.40
2022-10-26T03:12:52.459Z,12.40
2022-10-26T03:15:20.113Z,12.40
2022-10-26T03:17:47.838Z,12.40
2022-10-26T03:20:15.236Z,12.40
2022-10-26T03:22:42.394Z,12.40
2022-10-26T03:25:10.075Z,12.40
2022-10-26T03:27:38.050Z,12.40
2022-10-26T03:30:05.918Z,12.40
2022-10-26T03:32:33.056Z,12.40
2022-10-26T03:35:00.233Z,12.40
2022-10-26T03:37:28.253Z,12.40
2022-10-26T03:39:55.432Z,12.40
2022-10-26T03:42:22.552Z,12.40
2022-10-26T03:44:49.643Z,12.40
2022-10-26T03:47:16.768Z,12.40
2022-10-26T03:49:43.904Z,12.40
2022-10-26T03:52:11.152Z,12.40
2022-10-26T03:54:38.240Z,12.40
2022-10-26T03:57:05.388Z,12.40
2022-10-26T03:59:32.550Z,12.40
2022-10-26T04:01:59.700Z,12.40
2022-10-26T04:04:26.939Z,12.40
2022-10-26T04:06:54.108Z,12.40
2022-10-26T04:09:21.227Z,12.40
2022-10-26T04:11:48.662Z,12.40
2022-10-26T04:14:15.872Z,12.40
2022-10-26T04:16:43.090Z,12.40
2022-10-26T04:19:10.288Z,12.40
2022-10-26T04:21:37.570Z,12.40
2022-10-26T04:24:05.233Z,12.40
2022-10-26T04:26:32.587Z,12.40
2022-10-26T04:28:59.737Z,12.40
2022-10-26T04:31:26.920Z,12.30
2022-10-26T04:33:54.009Z,12.30
2022-10-26T04:36:21.209Z,12.30
2022-10-26T04:38:49.566Z,12.30
2022-10-26T04:41:16.660Z,12.30
2022-10-26T04:43:43.765Z,12.30
2022-10-26T04:46:16.569Z,12.30
2022-10-26T04:48:44.121Z,12.30
2022-10-26T04:51:11.323Z,12.30
2022-10-26T04:53:38.426Z,12.30
2022-10-26T04:56:06.000Z,12.30
2022-10-26T04:58:33.129Z,12.30
2022-10-26T05:01:02.561Z,12.30
2022-10-26T05:03:30.247Z,12.30
2022-10-26T05:06:00.513Z,12.30
2022-10-26T05:08:30.117Z,12.30
2022-10-26T05:10:57.269Z,12.30
2022-10-26T05:13:24.570Z,12.30
2022-10-26T05:15:55.812Z,12.30
2022-10-26T05:18:23.068Z,12.30
2022-10-26T05:20:53.445Z,12.30
2022-10-26T05:23:20.905Z,12.30
2022-10-26T05:25:49.178Z,12.30
2022-10-26T05:28:17.071Z,12.40
2022-10-26T05:30:45.712Z,12.40
2022-10-26T05:33:14.158Z,12.40
2022-10-26T05:35:41.540Z,12.30
2022-10-26T05:38:10.501Z,12.30
2022-10-26T05:40:37.920Z,12.40
2022-10-26T05:43:05.172Z,12.30
2022-10-26T05:45:32.318Z,12.30
2022-10-26T05:48:02.582Z,12.30
2022-10-26T05:50:30.765Z,12.30
2022-10-26T05:52:58.171Z,12.30
2022-10-26T05:55:25.652Z,12.30
2022-10-26T05:57:53.229Z,12.30
2022-10-26T06:00:23.527Z,12.30
2022-10-26T06:03:09.248Z,12.30
2022-10-26T06:05:46.488Z,12.30
2022-10-26T06:08:14.053Z,12.30
2022-10-26T06:10:41.502Z,12.30
2022-10-26T06:13:08.756Z,12.30
2022-10-26T06:16:00.935Z,12.30
2022-10-26T06:18:40.582Z,12.40
2022-10-26T06:21:33.428Z,12.40
2022-10-26T06:24:27.245Z,12.40
2022-10-26T06:27:02.790Z,12.40
2022-10-26T06:29:56.175Z,12.40
2022-10-26T06:32:25.107Z,12.40
2022-10-26T06:35:01.722Z,12.40
2022-10-26T06:37:31.965Z,12.40
2022-10-26T06:39:59.609Z,12.40
2022-10-26T06:42:27.013Z,12.40
2022-10-26T06:44:54.640Z,12.50
2022-10-26T06:47:39.508Z,12.40
2022-10-26T06:50:45.335Z,12.50
2022-10-26T06:53:53.009Z,12.50
2022-10-26T06:56:20.797Z,12.50
2022-10-26T06:58:49.825Z,12.50
2022-10-26T07:01:18.439Z,12.50
2022-10-26T07:03:45.723Z,12.50
2022-10-26T07:06:13.156Z,12.50
2022-10-26T07:08:40.375Z,12.50
2022-10-26T07:11:09.394Z,12.60
2022-10-26T07:13:36.526Z,12.60
2022-10-26T07:16:03.890Z,12.60
2022-10-26T07:18:31.232Z,12.60
2022-10-26T07:20:59.617Z,12.60
2022-10-26T07:23:27.063Z,12.60
2022-10-26T07:25:54.331Z,12.60
2022-10-26T07:28:21.684Z,12.60
2022-10-26T07:30:49.383Z,12.60
2022-10-26T07:33:20.034Z,12.60
2022-10-26T07:35:47.139Z,12.70
2022-10-26T07:38:14.273Z,12.70
2022-10-26T07:40:41.426Z,12.70
2022-10-26T07:43:33.516Z,12.70
2022-10-26T07:46:00.830Z,12.70
2022-10-26T07:48:28.947Z,12.70
2022-10-26T07:50:56.180Z,12.70
2022-10-26T07:53:27.685Z,12.70
2022-10-26T07:55:56.398Z,12.70
2022-10-26T07:58:26.238Z,12.70
2022-10-26T08:00:54.726Z,12.70
2022-10-26T08:03:22.592Z,12.70
2022-10-26T08:05:56.061Z,12.70
2022-10-26T08:08:23.481Z,12.70
2022-10-26T08:10:52.438Z,12.70
2022-10-26T08:13:19.650Z,12.70
2022-10-26T08:15:47.951Z,12.70
2022-10-26T08:18:15.131Z,12.80
2022-10-26T08:20:42.476Z,12.80
2022-10-26T08:23:09.602Z,12.80
2022-10-26T08:25:36.797Z,12.80
2022-10-26T08:28:04.612Z,12.80
2022-10-26T08:30:33.117Z,12.80
2022-10-26T08:33:01.661Z,12.80
2022-10-26T08:35:29.374Z,12.80
2022-10-26T08:37:56.624Z,12.80
2022-10-26T08:40:28.393Z,12.80
2022-10-26T08:43:20.370Z,12.80
2022-10-26T08:45:53.921Z,12.80
2022-10-26T08:48:27.614Z,12.80
2022-10-26T08:51:02.606Z,12.80
2022-10-26T08:53:52.188Z,12.90
2022-10-26T08:56:26.268Z,12.90
2022-10-26T08:59:03.234Z,12.90
2022-10-26T09:01:34.518Z,12.90
2022-10-26T09:04:04.177Z,12.90
2022-10-26T09:06:48.839Z,12.90
2022-10-26T09:09:29.823Z,12.90
2022-10-26T09:12:12.284Z,12.90
2022-10-26T09:14:51.355Z,13.00
2022-10-26T09:17:45.775Z,13.00
2022-10-26T09:20:15.788Z,13.00
2022-10-26T09:23:15.762Z,13.00
2022-10-26T09:25:43.970Z,13.00
2022-10-26T09:28:19.285Z,13.10
2022-10-26T09:30:47.845Z,13.10
2022-10-26T09:33:18.778Z,13.10
2022-10-26T09:36:24.594Z,13.10
2022-10-26T09:38:56.949Z,13.20
2022-10-26T09:41:33.507Z,13.20
2022-10-26T09:44:20.747Z,13.20
2022-10-26T09:47:01.785Z,13.20
2022-10-26T09:49:51.606Z,13.20
2022-10-26T09:52:19.094Z,13.20
2022-10-26T09:54:46.401Z,13.30
2022-10-26T09:57:20.028Z,13.30
2022-10-26T09:59:48.155Z,13.30
2022-10-26T10:02:40.107Z,13.30
2022-10-26T10:05:50.742Z,13.30
2022-10-26T10:08:20.670Z,13.30
2022-10-26T10:11:24.600Z,13.30
2022-10-26T10:13:51.993Z,13.30
2022-10-26T10:16:28.467Z,13.30
2022-10-26T10:19:00.916Z,13.30
2022-10-26T10:25:00.178Z,13.20
2022-10-26T10:27:29.005Z,13.20
2022-10-26T10:30:01.419Z,13.20
2022-10-26T10:32:35.885Z,13.20
2022-10-26T10:35:24.468Z,13.30
2022-10-26T10:37:52.835Z,13.40
2022-10-26T10:40:21.952Z,13.50
2022-10-26T10:42:52.077Z,13.50
2022-10-26T10:45:25.677Z,13.60
2022-10-26T10:48:20.561Z,13.60
2022-10-26T10:51:03.431Z,13.60
2022-10-26T10:53:38.025Z,13.60
2022-10-26T10:56:19.220Z,13.60
2022-10-26T10:58:53.361Z,13.50
2022-10-26T11:01:23.640Z,13.50
2022-10-26T11:04:09.156Z,13.50
2022-10-26T11:06:39.866Z,13.50
2022-10-26T11:09:19.713Z,13.50
2022-10-26T11:11:55.657Z,13.50
2022-10-26T11:14:43.292Z,13.50
2022-10-26T11:17:50.933Z,13.50
2022-10-26T11:20:22.548Z,13.50
2022-10-26T11:22:53.178Z,13.50
2022-10-26T11:25:30.362Z,13.50
2022-10-26T11:28:13.260Z,13.50
2022-10-26T11:30:49.386Z,13.50
2022-10-26T11:33:26.579Z,13.60
2022-10-26T11:36:02.364Z,13.60
2022-10-26T11:38:57.238Z,13.60
2022-10-26T11:41:49.624Z,13.70
2022-10-26T11:44:22.819Z,13.70
2022-10-26T11:47:01.140Z,13.70
2022-10-26T11:49:46.027Z,13.70
2022-10-26T11:52:33.763Z,13.70
2022-10-26T11:55:02.346Z,13.80
2022-10-26T11:57:33.232Z,13.80
2022-10-26T12:00:08.214Z,13.80
2022-10-26T12:05:16.196Z,13.80
2022-10-26T12:07:57.012Z,13.80
2022-10-26T12:10:28.059Z,13.80
2022-10-26T12:13:00.088Z,13.80
2022-10-26T12:18:56.346Z,13.90
2022-10-26T12:21:30.095Z,14.00
2022-10-26T12:24:01.340Z,14.10
2022-10-26T12:26:28.875Z,14.10
2022-10-26T12:29:02.048Z,14.20
2022-10-26T12:31:38.418Z,14.20
2022-10-26T12:34:12.401Z,14.30
2022-10-26T12:36:57.988Z,14.30
2022-10-26T12:39:41.742Z,14.40
2022-10-26T12:42:08.803Z,14.40
2022-10-26T12:45:00.298Z,14.40
2022-10-26T12:47:31.081Z,14.40
2022-10-26T12:50:01.801Z,14.50
2022-10-26T12:52:48.958Z,14.50
2022-10-26T12:55:40.844Z,14.50
2022-10-26T12:58:25.861Z,14.60
2022-10-26T13:00:58.977Z,14.60
2022-10-26T13:03:38.529Z,14.70
2022-10-26T13:06:17.351Z,14.70
2022-10-26T13:08:49.119Z,14.80
2022-10-26T13:11:25.366Z,14.80
2022-10-26T13:13:57.883Z,14.80
2022-10-26T13:16:27.205Z,14.70
2022-10-26T13:18:54.657Z,14.70
2022-10-26T13:21:23.923Z,14.70
2022-10-26T13:23:54.236Z,14.70
2022-10-26T13:26:24.759Z,14.60
2022-10-26T13:28:58.332Z,14.60
2022-10-26T13:31:32.324Z,14.50
2022-10-26T13:34:04.966Z,14.50
2022-10-26T13:36:44.288Z,14.50
2022-10-26T13:39:29.900Z,14.50
2022-10-26T13:41:59.288Z,14.40
2022-10-26T13:44:44.772Z,14.40
2022-10-26T13:47:38.354Z,14.30
2022-10-26T13:50:14.823Z,14.30
2022-10-26T13:52:46.046Z,14.30
2022-10-26T13:55:24.373Z,14.30
2022-10-26T13:58:17.414Z,14.40
2022-10-26T14:01:03.535Z,14.40
2022-10-26T14:03:30.886Z,14.40
2022-10-26T14:05:58.941Z,14.50
2022-10-26T14:08:26.393Z,14.60
2022-10-26T14:11:03.514Z,14.60
2022-10-26T14:13:32.279Z,14.70
2022-10-26T14:15:59.909Z,14.70
2022-10-26T14:18:29.989Z,14.70
2022-10-26T14:20:58.833Z,14.70
2022-10-26T14:23:34.059Z,14.80
2022-10-26T14:26:01.591Z,14.80
2022-10-26T14:28:38.894Z,14.70
2022-10-26T14:31:29.028Z,14.70
2022-10-26T14:33:58.072Z,14.70
2022-10-26T14:36:37.244Z,14.70
2022-10-26T14:39:16.452Z,14.70
2022-10-26T14:41:44.021Z,14.80
2022-10-26T14:44:21.684Z,14.80
2022-10-26T14:46:49.806Z,14.80
2022-10-26T14:49:21.053Z,14.90
2022-10-26T14:51:48.637Z,14.90
2022-10-26T14:54:24.990Z,14.80
2022-10-26T14:56:52.749Z,14.80
2022-10-26T14:59:29.941Z,14.80
2022-10-26T15:02:06.120Z,14.80
2022-10-26T15:04:37.682Z,14.80
2022-10-26T15:07:11.905Z,14.80
2022-10-26T15:09:43.728Z,14.80
2022-10-26T15:12:29.157Z,14.80
2022-10-26T15:15:06.288Z,14.80
2022-10-26T15:17:39.695Z,14.80
2022-10-26T15:20:14.467Z,14.70
2022-10-26T15:22:43.920Z,14.70
2022-10-26T15:25:23.871Z,14.60
2022-10-26T15:27:52.096Z,14.60
2022-10-26T15:30:23.207Z,14.60
2022-10-26T15:32:51.941Z,14.70
2022-10-26T15:35:19.186Z,14.60
2022-10-26T15:37:47.627Z,14.60
2022-10-26T15:40:14.992Z,14.60
2022-10-26T15:42:45.442Z,14.60
2022-10-26T15:45:20.751Z,14.60
2022-10-26T15:47:48.615Z,14.60
2022-10-26T15:50:18.893Z,14.50
2022-10-26T15:52:49.067Z,14.50
2022-10-26T15:55:17.848Z,14.50
2022-10-26T15:57:45.205Z,14.40
2022-10-26T16:00:18.013Z,14.40
2022-10-26T16:02:46.567Z,14.40
2022-10-26T16:05:16.201Z,14.40
2022-10-26T16:07:47.315Z,14.40
2022-10-26T16:10:18.695Z,14.30
2022-10-26T16:12:46.440Z,14.30
2022-10-26T16:15:27.130Z,14.20
2022-10-26T16:17:54.712Z,14.20
2022-10-26T16:20:24.921Z,14.20
2022-10-26T16:22:54.731Z,14.10
2022-10-26T16:25:24.637Z,14.10
2022-10-26T16:27:53.300Z,14.10
2022-10-26T16:30:21.309Z,14.00
2022-10-26T16:32:49.128Z,14.00
2022-10-26T16:35:16.954Z,14.00
2022-10-26T16:37:45.698Z,14.00
2022-10-26T16:40:13.311Z,13.90
2022-10-26T16:42:44.069Z,13.90
2022-10-26T16:45:16.162Z,13.90
2022-10-26T16:47:43.662Z,13.80
2022-10-26T16:50:12.624Z,13.80
2022-10-26T16:52:40.752Z,13.80
2022-10-26T16:55:09.195Z,13.70
2022-10-26T16:57:37.574Z,13.70
2022-10-26T17:00:06.771Z,13.70
2022-10-26T17:02:34.319Z,13.60
2022-10-26T17:05:04.372Z,13.60
2022-10-26T17:07:34.489Z,13.50
2022-10-26T17:10:01.821Z,13.50
2022-10-26T17:12:29.596Z,13.50
2022-10-26T17:14:58.951Z,13.40
2022-10-26T17:17:26.201Z,13.40
2022-10-26T17:19:53.454Z,13.40
2022-10-26T17:22:20.612Z,13.40
2022-10-26T17:24:47.756Z,13.30
2022-10-26T17:27:17.041Z,13.30
2022-10-26T17:29:44.233Z,13.30
2022-10-26T17:32:11.386Z,13.20
2022-10-26T17:34:38.758Z,13.20
2022-10-26T17:37:06.211Z,13.20
2022-10-26T17:39:33.337Z,13.20
2022-10-26T17:42:00.465Z,13.20
2022-10-26T17:44:27.976Z,13.20
2022-10-26T17:46:55.080Z,13.20
2022-10-26T17:49:25.125Z,13.20
2022-10-26T17:51:55.255Z,13.10
2022-10-26T17:54:22.690Z,13.10
2022-10-26T17:56:50.347Z,13.10
2022-10-26T17:59:19.379Z,13.10
2022-10-26T18:01:46.751Z,13.10
2022-10-26T18:04:14.000Z,13.10
2022-10-26T18:06:41.194Z,13.00
2022-10-26T18:09:08.334Z,13.00
2022-10-26T18:11:35.811Z,13.00
2022-10-26T18:14:03.010Z,13.00
2022-10-26T18:16:31.197Z,13.00
2022-10-26T18:19:04.456Z,13.00
2022-10-26T18:21:37.383Z,13.00
2022-10-26T18:24:06.382Z,13.00
2022-10-26T18:26:34.306Z,13.00
2022-10-26T18:29:02.799Z,13.00
2022-10-26T18:31:31.859Z,13.00
2022-10-26T18:34:04.641Z,13.00
2022-10-26T18:36:32.795Z,13.10
2022-10-26T18:39:00.037Z,13.10
2022-10-26T18:41:27.923Z,13.10
2022-10-26T18:44:01.543Z,13.10
2022-10-26T18:46:31.562Z,13.10
2022-10-26T18:49:00.914Z,13.10
2022-10-26T18:51:34.259Z,13.10
2022-10-26T18:54:02.110Z,13.10
2022-10-26T18:56:31.825Z,13.10
2022-10-26T18:59:00.282Z,13.10
2022-10-26T19:01:30.347Z,13.10
2022-10-26T19:04:00.157Z,13.10
2022-10-26T19:06:47.722Z,13.10
2022-10-26T19:09:16.209Z,13.10
2022-10-26T19:11:43.563Z,13.00
2022-10-26T19:14:12.441Z,13.00
2022-10-26T19:16:46.026Z,13.00
2022-10-26T19:19:15.206Z,12.90
2022-10-26T19:21:42.392Z,12.90
2022-10-26T19:24:16.665Z,12.80
2022-10-26T19:26:44.385Z,12.80
2022-10-26T19:29:15.299Z,12.70
2022-10-26T19:31:44.490Z,12.70
2022-10-26T19:34:13.950Z,12.70
2022-10-26T19:36:44.924Z,12.70
2022-10-26T19:39:15.234Z,12.60
2022-10-26T19:41:43.427Z,12.60
2022-10-26T19:44:11.796Z,12.60
2022-10-26T19:46:39.941Z,12.60
2022-10-26T19:49:07.788Z,12.60
2022-10-26T19:52:00.846Z,12.60
2022-10-26T19:54:28.076Z,12.50
2022-10-26T19:56:55.258Z,12.50
2022-10-26T19:59:22.927Z,12.50
2022-10-26T20:01:50.194Z,12.50
2022-10-26T20:04:17.330Z,12.50
2022-10-26T20:06:44.450Z,12.50
2022-10-26T20:09:11.969Z,12.50
2022-10-26T20:11:42.977Z,12.50
2022-10-26T20:14:13.761Z,12.40
2022-10-26T20:16:41.091Z,12.40
2022-10-26T20:19:08.239Z,12.40
2022-10-26T20:21:35.510Z,12.40
2022-10-26T20:24:05.637Z,12.40
2022-10-26T20:26:35.121Z,12.40
2022-10-26T20:29:03.288Z,12.40
2022-10-26T20:31:30.425Z,12.40
2022-10-26T20:33:57.622Z,12.50
2022-10-26T20:36:25.099Z,12.50
2022-10-26T20:38:52.597Z,12.50
2022-10-26T20:41:20.180Z,12.50
2022-10-26T20:43:48.153Z,12.50
2022-10-26T20:46:26.824Z,12.50
2022-10-26T20:48:54.857Z,12.40
2022-10-26T20:51:38.536Z,12.40
2022-10-26T20:54:31.093Z,12.40
2022-10-26T20:57:02.310Z,12.30
2022-10-26T20:59:45.708Z,12.30
2022-10-26T21:02:13.124Z,12.30
2022-10-26T21:04:40.444Z,12.30
2022-10-26T21:07:07.599Z,12.30
2022-10-26T21:09:36.696Z,12.20
2022-10-26T21:12:30.028Z,12.20
2022-10-26T21:14:57.175Z,12.20
2022-10-26T21:17:24.876Z,12.20
2022-10-26T21:19:52.013Z,12.10
2022-10-26T21:22:19.151Z,12.10
2022-10-26T21:24:46.252Z,12.10
2022-10-26T21:27:13.410Z,12.10
2022-10-26T21:29:40.657Z,12.00
2022-10-26T21:32:07.737Z,12.00
2022-10-26T21:34:34.849Z,12.00
2022-10-26T21:37:02.053Z,12.00
2022-10-26T21:39:29.176Z,12.00
2022-10-26T21:41:56.439Z,12.00
2022-10-26T21:44:39.846Z,12.00
2022-10-26T21:47:08.119Z,12.00
2022-10-26T21:49:35.528Z,12.10
2022-10-26T21:52:02.741Z,12.10
2022-10-26T21:54:29.950Z,12.20
2022-10-26T21:56:57.186Z,12.20
2022-10-26T21:59:24.273Z,12.30
2022-10-26T22:01:51.501Z,12.30
2022-10-26T22:04:18.713Z,12.40
2022-10-26T22:06:45.846Z,12.40
2022-10-26T22:09:13.078Z,12.40
2022-10-26T22:11:40.213Z,12.40
2022-10-26T22:14:07.404Z,12.40
2022-10-26T22:16:34.975Z,12.40
2022-10-26T22:19:08.015Z,12.30
2022-10-26T22:21:38.245Z,12.30
2022-10-26T22:24:06.752Z,12.30
2022-10-26T22:26:35.784Z,12.30
2022-10-26T22:29:04.106Z,12.30
2022-10-26T22:31:38.568Z,12.30
2022-10-26T22:34:08.518Z,12.30
2022-10-26T22:36:36.366Z,12.30
2022-10-26T22:39:04.025Z,12.30
2022-10-26T22:41:31.315Z,12.30
2022-10-26T22:43:58.827Z,12.30
2022-10-26T22:46:28.131Z,12.20
2022-10-26T22:49:00.761Z,12.20
2022-10-26T22:51:33.976Z,12.20
2022-10-26T22:54:03.021Z,12.20
2022-10-26T22:56:31.702Z,12.20
2022-10-26T22:58:58.944Z,12.20
2022-10-26T23:01:31.373Z,12.20
2022-10-26T23:03:59.711Z,12.20
2022-10-26T23:06:29.865Z,12.20
2022-10-26T23:08:57.360Z,12.20
2022-10-26T23:11:27.804Z,12.20
2022-10-26T23:13:56.484Z,12.20
2022-10-26T23:16:23.808Z,12.20
2022-10-26T23:18:53.309Z,12.20
2022-10-26T23:21:22.379Z,12.20
2022-10-26T23:23:49.547Z,12.20
2022-10-26T23:26:19.412Z,12.10
2022-10-26T23:28:46.589Z,12.10
2022-10-26T23:31:20.294Z,12.10
2022-10-26T23:33:47.496Z,12.10
2022-10-26T23:36:14.682Z,12.10
2022-10-26T23:38:41.744Z,12.10
2022-10-26T23:41:12.124Z,12.10
2022-10-26T23:43:40.527Z,12.10
2022-10-26T23:46:08.156Z,12.10
2022-10-26T23:48:35.477Z,12.10
2022-10-26T23:51:02.717Z,12.10
2022-10-26T23:53:29.930Z,12.00
2022-10-26T23:55:57.129Z,12.00
2022-10-26T23:58:25.292Z,12.00
